createdAt,value
2023-05-28T00:00:09.578Z,100287.77
2023-05-28T00:02:41.625Z,100287.27
2023-05-28T00:05:09.924Z,100287.61
2023-05-28T00:07:38.491Z,100285.03
2023-05-28T00:10:06.496Z,100289.36
2023-05-28T00:12:35.091Z,100293.19
2023-05-28T00:15:02.764Z,100299.02
2023-05-28T00:17:30.791Z,100295.61
2023-05-28T00:19:58.572Z,100300.48
2023-05-28T00:22:26.713Z,100298.81
2023-05-28T00:24:54.394Z,100298.33
2023-05-28T00:27:21.928Z,100302.02
2023-05-28T00:29:49.587Z,100303.91
2023-05-28T00:32:17.248Z,100303.70
2023-05-28T00:34:44.596Z,100300.72
2023-05-28T00:37:12.406Z,100304.80
2023-05-28T00:39:39.895Z,100305.48
2023-05-28T00:42:08.677Z,100304.95
2023-05-28T00:44:36.115Z,100311.02
2023-05-28T00:47:03.803Z,100309.67
2023-05-28T00:49:33.566Z,100304.08
2023-05-28T00:52:01.618Z,100306.77
2023-05-28T00:54:30.868Z,100303.83
2023-05-28T00:56:58.661Z,100304.62
2023-05-28T00:59:26.634Z,100304.63
2023-05-28T01:01:54.796Z,100308.48
2023-05-28T01:04:29.927Z,100309.44
2023-05-28T01:07:00.638Z,100304.41
2023-05-28T01:09:28.087Z,100305.45
2023-05-28T01:11:55.932Z,100306.56
2023-05-28T01:14:24.443Z,100307.48
2023-05-28T01:16:52.783Z,100307.52
2023-05-28T01:19:28.196Z,100308.05
2023-05-28T01:21:57.609Z,100313.53
2023-05-28T01:24:25.319Z,100315.78
2023-05-28T01:26:53.018Z,100321.79
2023-05-28T01:29:20.918Z,100327.31
2023-05-28T01:31:48.341Z,100329.98
2023-05-28T01:34:17.390Z,100331.83
2023-05-28T01:36:47.419Z,100334.84
2023-05-28T01:39:16.455Z,100340.55
2023-05-28T01:41:46.216Z,100344.44
2023-05-28T01:44:17.793Z,100343.89
2023-05-28T01:46:46.607Z,100348.31
2023-05-28T01:49:16.196Z,100344.04
2023-05-28T01:51:44.096Z,100344.65
2023-05-28T01:54:11.569Z,100344.44
2023-05-28T01:56:39.210Z,100344.13
2023-05-28T01:59:06.611Z,100348.30
2023-05-28T02:01:36.281Z,100351.73
2023-05-28T02:04:04.488Z,100348.75
2023-05-28T02:06:33.290Z,100347.86
2023-05-28T02:09:00.921Z,100354.70
2023-05-28T02:11:28.597Z,100354.29
2023-05-28T02:13:57.724Z,100351.80
2023-05-28T02:16:25.907Z,100352.15
2023-05-28T02:18:55.295Z,100355.11
2023-05-28T02:21:23.992Z,100356.64
2023-05-28T02:23:51.898Z,100358.99
2023-05-28T02:26:19.310Z,100354.77
2023-05-28T02:28:46.910Z,100357.83
2023-05-28T02:31:15.973Z,100358.86
2023-05-28T02:33:45.825Z,100356.44
2023-05-28T02:36:15.213Z,100354.35
2023-05-28T02:38:43.217Z,100358.39
2023-05-28T02:41:10.916Z,100356.91
2023-05-28T02:43:39.768Z,100355.95
2023-05-28T02:46:08.744Z,100353.08
2023-05-28T02:48:37.354Z,100358.80
2023-05-28T02:51:05.598Z,100360.26
2023-05-28T02:53:39.478Z,100358.81
2023-05-28T02:56:07.562Z,100360.42
2023-05-28T02:58:36.950Z,100361.47
2023-05-28T03:01:08.517Z,100358.98
2023-05-28T03:03:37.904Z,100354.02
2023-05-28T03:06:07.885Z,100360.97
2023-05-28T03:08:41.795Z,100361.34
2023-05-28T03:11:09.242Z,100360.52
2023-05-28T03:13:36.639Z,100359.79
2023-05-28T03:16:04.469Z,100360.99
2023-05-28T03:18:33.669Z,100364.48
2023-05-28T03:21:01.947Z,100363.05
2023-05-28T03:23:30.715Z,100365.23
2023-05-28T03:26:19.624Z,100368.02
2023-05-28T03:28:46.879Z,100371.86
2023-05-28T03:31:49.397Z,100374.85
2023-05-28T03:34:22.714Z,100380.84
2023-05-28T03:36:51.540Z,100382.92
2023-05-28T03:39:19.726Z,100384.36
2023-05-28T03:41:49.925Z,100380.05
2023-05-28T03:44:18.306Z,100381.81
2023-05-28T03:46:45.964Z,100377.98
2023-05-28T03:49:14.086Z,100379.20
2023-05-28T03:51:41.768Z,100381.98
2023-05-28T03:54:09.013Z,100373.59
2023-05-28T03:56:36.719Z,100373.62
2023-05-28T03:59:04.834Z,100374.30
2023-05-28T04:01:35.029Z,100380.54
2023-05-28T04:04:02.588Z,100378.42
2023-05-28T04:06:34.061Z,100382.94
2023-05-28T04:09:01.470Z,100382.73
2023-05-28T04:11:30.712Z,100382.59
2023-05-28T04:13:58.166Z,100384.03
2023-05-28T04:16:25.539Z,100388.08
2023-05-28T04:18:53.676Z,100389.21
2023-05-28T04:21:21.615Z,100393.55
2023-05-28T04:23:49.267Z,100396.20
2023-05-28T04:26:17.281Z,100396.09
2023-05-28T04:28:44.772Z,100394.65
2023-05-28T04:31:12.173Z,100399.66
2023-05-28T04:33:39.569Z,100401.98
2023-05-28T04:36:14.168Z,100407.50
2023-05-28T04:38:42.645Z,100409.27
2023-05-28T04:41:14.866Z,100407.11
2023-05-28T04:43:42.516Z,100410.64
2023-05-28T04:46:10.804Z,100410.59
2023-05-28T04:48:39.490Z,100411.83
2023-05-28T04:51:07.768Z,100410.81
2023-05-28T04:53:35.699Z,100416.16
2023-05-28T04:56:04.821Z,100416.58
2023-05-28T04:58:33.232Z,100415.98
2023-05-28T05:01:00.852Z,100421.89
2023-05-28T05:03:32.494Z,100422.88
2023-05-28T05:05:59.835Z,100423.01
2023-05-28T05:08:27.938Z,100426.04
2023-05-28T05:10:55.429Z,100429.16
2023-05-28T05:13:22.752Z,100426.98
2023-05-28T05:15:51.348Z,100430.63
2023-05-28T05:18:19.408Z,100425.81
2023-05-28T05:20:46.917Z,100420.73
2023-05-28T05:23:16.377Z,100419.79
2023-05-28T05:25:48.856Z,100417.45
2023-05-28T05:28:16.406Z,100413.45
2023-05-28T05:30:44.581Z,100416.52
2023-05-28T05:33:12.241Z,100414.59
2023-05-28T05:36:02.385Z,100419.62
2023-05-28T05:38:51.156Z,100424.48
2023-05-28T05:41:38.960Z,100423.05
2023-05-28T05:44:13.449Z,100429.69
2023-05-28T05:46:41.014Z,100434.04
2023-05-28T05:49:10.230Z,100437.07
2023-05-28T05:51:37.657Z,100433.30
2023-05-28T05:54:05.210Z,100434.73
2023-05-28T05:56:33.099Z,100426.05
2023-05-28T05:59:00.659Z,100429.10
2023-05-28T06:01:28.065Z,100425.73
2023-05-28T06:03:55.452Z,100425.82
2023-05-28T06:06:51.957Z,100421.61
2023-05-28T06:09:38.183Z,100419.72
2023-05-28T06:12:18.484Z,100421.54
2023-05-28T06:14:47.782Z,100428.28
2023-05-28T06:17:16.595Z,100428.02
2023-05-28T06:19:44.465Z,100429.17
2023-05-28T06:22:12.571Z,100429.84
2023-05-28T06:24:41.650Z,100431.52
2023-05-28T06:27:10.312Z,100432.80
2023-05-28T06:29:37.645Z,100430.88
2023-05-28T06:32:05.632Z,100427.67
2023-05-28T06:34:34.050Z,100420.29
2023-05-28T06:37:01.620Z,100424.13
2023-05-28T06:39:29.058Z,100427.20
2023-05-28T06:41:58.026Z,100427.66
2023-05-28T06:44:38.482Z,100425.80
2023-05-28T06:47:10.519Z,100434.69
2023-05-28T06:49:38.467Z,100432.36
2023-05-28T06:52:06.668Z,100433.38
2023-05-28T06:54:34.259Z,100427.46
2023-05-28T06:57:01.702Z,100424.52
2023-05-28T06:59:49.431Z,100424.72
2023-05-28T07:02:45.824Z,100418.89
2023-05-28T07:05:26.590Z,100419.27
2023-05-28T07:07:55.716Z,100417.15
2023-05-28T07:10:23.125Z,100414.95
2023-05-28T07:12:50.712Z,100416.50
2023-05-28T07:15:18.293Z,100416.65
2023-05-28T07:17:48.457Z,100419.17
2023-05-28T07:20:17.095Z,100415.95
2023-05-28T07:22:58.191Z,100416.49
2023-05-28T07:25:25.570Z,100414.51
2023-05-28T07:27:53.035Z,100411.98
2023-05-28T07:30:28.257Z,100407.64
2023-05-28T07:33:10.901Z,100406.16
2023-05-28T07:35:38.696Z,100403.19
2023-05-28T07:38:06.781Z,100404.48
2023-05-28T07:40:34.522Z,100399.88
2023-05-28T07:43:13.937Z,100393.30
2023-05-28T07:45:41.692Z,100393.53
2023-05-28T07:48:09.903Z,100397.71
2023-05-28T07:51:03.420Z,100393.77
2023-05-28T07:53:39.090Z,100385.34
2023-05-28T07:56:10.679Z,100387.16
2023-05-28T07:58:38.678Z,100380.52
2023-05-28T08:01:10.281Z,100377.07
2023-05-28T08:03:38.659Z,100385.05
2023-05-28T08:06:07.453Z,100385.77
2023-05-28T08:08:35.807Z,100384.87
2023-05-28T08:11:03.543Z,100382.98
2023-05-28T08:13:31.113Z,100382.96
2023-05-28T08:15:59.721Z,100381.50
2023-05-28T08:18:27.722Z,100382.60
2023-05-28T08:20:55.367Z,100378.98
2023-05-28T08:23:25.060Z,100375.92
2023-05-28T08:25:53.781Z,100374.81
2023-05-28T08:28:26.200Z,100371.36
2023-05-28T08:30:53.679Z,100371.14
2023-05-28T08:33:44.082Z,100371.67
2023-05-28T08:36:11.649Z,100370.11
2023-05-28T08:38:39.466Z,100375.52
2023-05-28T08:41:07.077Z,100372.77
2023-05-28T08:43:34.689Z,100377.05
2023-05-28T08:46:02.197Z,100374.58
2023-05-28T08:48:41.062Z,100373.19
2023-05-28T08:51:08.997Z,100372.00
2023-05-28T08:53:45.098Z,100367.22
2023-05-28T08:56:12.589Z,100370.95
2023-05-28T08:58:40.601Z,100374.09
2023-05-28T09:01:11.731Z,100374.40
2023-05-28T09:03:42.692Z,100366.58
2023-05-28T09:06:15.409Z,100368.56
2023-05-28T09:08:45.236Z,100372.79
2023-05-28T09:11:15.395Z,100368.68
2023-05-28T09:13:45.297Z,100376.36
2023-05-28T09:16:15.696Z,100369.05
2023-05-28T09:18:43.875Z,100362.55
2023-05-28T09:21:12.034Z,100368.41
2023-05-28T09:23:40.506Z,100367.56
2023-05-28T09:26:32.032Z,100373.36
2023-05-28T09:29:12.537Z,100374.52
2023-05-28T09:31:40.040Z,100369.55
2023-05-28T09:34:07.855Z,100374.11
2023-05-28T09:36:37.027Z,100368.77
2023-05-28T09:39:10.494Z,100377.56
2023-05-28T09:41:44.881Z,100374.41
2023-05-28T09:44:12.244Z,100370.23
2023-05-28T09:46:39.975Z,100367.98
2023-05-28T09:49:07.534Z,100366.00
2023-05-28T09:51:37.048Z,100370.80
2023-05-28T09:54:07.321Z,100371.20
2023-05-28T09:56:37.310Z,100370.98
2023-05-28T09:59:07.163Z,100368.89
2023-05-28T10:01:42.869Z,100374.75
2023-05-28T10:04:11.188Z,100375.13
2023-05-28T10:06:39.493Z,100374.81
2023-05-28T10:09:07.376Z,100370.02
2023-05-28T10:11:42.756Z,100367.61
2023-05-28T10:14:11.329Z,100366.91
2023-05-28T10:16:39.909Z,100357.93
2023-05-28T10:19:08.845Z,100368.63
2023-05-28T10:21:36.326Z,100374.70
2023-05-28T10:24:04.019Z,100375.87
2023-05-28T10:26:31.964Z,100371.56
2023-05-28T10:28:59.384Z,100370.85
2023-05-28T10:31:26.853Z,100366.45
2023-05-28T10:33:54.671Z,100361.39
2023-05-28T10:36:22.452Z,100363.13
2023-05-28T10:38:52.815Z,100370.45
2023-05-28T10:53:12.219Z,100364.40
2023-05-28T10:55:56.453Z,100362.63
2023-05-28T10:58:29.711Z,100363.08
2023-05-28T11:01:14.496Z,100361.98
2023-05-28T11:03:44.204Z,100354.38
2023-05-28T11:06:13.008Z,100359.05
2023-05-28T11:08:46.239Z,100357.41
2023-05-28T11:11:17.981Z,100358.00
2023-05-28T11:13:47.304Z,100365.27
2023-05-28T11:16:19.537Z,100368.02
2023-05-28T11:19:09.207Z,100366.92
2023-05-28T11:21:57.440Z,100367.54
2023-05-28T11:24:25.496Z,100366.83
2023-05-28T11:26:55.674Z,100359.55
2023-05-28T11:29:23.631Z,100359.61
2023-05-28T11:31:51.977Z,100358.73
2023-05-28T11:34:20.820Z,100355.31
2023-05-28T11:36:48.861Z,100354.16
2023-05-28T11:39:17.750Z,100361.30
2023-05-28T11:41:45.659Z,100368.38
2023-05-28T11:44:22.374Z,100362.88
2023-05-28T11:46:54.923Z,100368.27
2023-05-28T11:49:23.573Z,100365.45
2023-05-28T11:51:53.642Z,100363.47
2023-05-28T11:54:22.694Z,100358.52
2023-05-28T11:56:52.153Z,100358.89
2023-05-28T11:59:22.780Z,100357.19
2023-05-28T12:01:50.755Z,100351.85
2023-05-28T12:04:23.352Z,100355.70
2023-05-28T12:06:53.121Z,100349.60
2023-05-28T12:09:21.473Z,100357.97
2023-05-28T12:12:11.238Z,100357.68
2023-05-28T12:14:40.205Z,100354.66
2023-05-28T12:17:11.751Z,100357.91
2023-05-28T12:19:39.620Z,100357.69
2023-05-28T12:22:16.105Z,100356.73
2023-05-28T12:24:55.228Z,100357.95
2023-05-28T12:27:23.382Z,100358.17
2023-05-28T12:29:51.393Z,100358.60
2023-05-28T12:32:20.719Z,100356.50
2023-05-28T12:34:48.938Z,100352.59
2023-05-28T12:37:17.237Z,100348.52
2023-05-28T12:39:45.960Z,100344.88
2023-05-28T12:42:13.993Z,100346.20
2023-05-28T12:44:42.021Z,100345.55
2023-05-28T12:47:11.011Z,100348.91
2023-05-28T12:49:39.041Z,100348.43
2023-05-28T12:52:07.396Z,100354.27
2023-05-28T12:54:35.496Z,100351.79
2023-05-28T12:57:04.534Z,100347.34
2023-05-28T12:59:32.484Z,100344.13
2023-05-28T13:02:00.860Z,100338.35
2023-05-28T13:04:29.169Z,100341.92
2023-05-28T13:06:57.234Z,100346.72
2023-05-28T13:09:25.548Z,100344.25
2023-05-28T13:11:53.626Z,100344.41
2023-05-28T13:14:21.813Z,100342.59
2023-05-28T13:16:49.880Z,100341.20
2023-05-28T13:19:17.966Z,100340.11
2023-05-28T13:21:46.294Z,100337.79
2023-05-28T13:24:14.797Z,100339.23
2023-05-28T13:26:43.250Z,100338.98
2023-05-28T13:29:11.466Z,100338.89
2023-05-28T13:31:39.535Z,100333.27
2023-05-28T13:34:07.593Z,100330.51
2023-05-28T13:36:36.493Z,100327.70
2023-05-28T13:39:05.608Z,100326.65
2023-05-28T13:41:34.914Z,100330.89
2023-05-28T13:44:03.492Z,100329.30
2023-05-28T13:46:32.141Z,100321.25
2023-05-28T13:49:00.486Z,100325.77
2023-05-28T13:51:28.845Z,100324.02
2023-05-28T13:53:56.862Z,100317.84
2023-05-28T13:56:24.914Z,100321.52
2023-05-28T13:58:53.080Z,100318.65
2023-05-28T14:01:21.978Z,100318.11
2023-05-28T14:03:50.205Z,100314.80
2023-05-28T14:06:18.372Z,100308.42
2023-05-28T14:08:46.315Z,100309.31
2023-05-28T14:11:14.557Z,100300.16
2023-05-28T14:13:42.520Z,100300.88
2023-05-28T14:16:10.607Z,100299.73
2023-05-28T14:18:38.705Z,100299.59
2023-05-28T14:21:08.331Z,100299.66
2023-05-28T14:23:36.679Z,100298.34
2023-05-28T14:26:05.219Z,100294.38
2023-05-28T14:28:33.245Z,100289.08
2023-05-28T14:31:01.840Z,100291.77
2023-05-28T14:33:32.811Z,100294.84
2023-05-28T14:36:14.900Z,100295.17
2023-05-28T14:38:44.083Z,100295.89
2023-05-28T14:41:12.749Z,100294.79
2023-05-28T14:43:40.774Z,100292.46
2023-05-28T14:46:08.937Z,100290.42
2023-05-28T14:48:37.124Z,100288.77
2023-05-28T14:51:08.348Z,100292.63
2023-05-28T14:53:36.450Z,100293.01
2023-05-28T14:56:04.873Z,100287.77
2023-05-28T14:58:32.884Z,100293.55
2023-05-28T15:01:04.379Z,100298.00
2023-05-28T15:03:33.173Z,100293.20
2023-05-28T15:06:01.626Z,100292.15
2023-05-28T15:08:29.738Z,100296.38
2023-05-28T15:10:59.346Z,100295.60
2023-05-28T15:13:27.625Z,100295.85
2023-05-28T15:15:56.921Z,100290.77
2023-05-28T15:18:25.362Z,100291.30
2023-05-28T15:20:53.650Z,100286.35
2023-05-28T15:23:22.271Z,100294.41
2023-05-28T15:25:50.463Z,100291.38
2023-05-28T15:28:18.793Z,100292.23
2023-05-28T15:30:47.036Z,100290.31
2023-05-28T15:33:15.185Z,100291.25
2023-05-28T15:35:43.413Z,100290.80
2023-05-28T15:38:11.701Z,100288.75
2023-05-28T15:40:40.724Z,100292.36
2023-05-28T15:43:08.891Z,100294.05
2023-05-28T15:45:37.240Z,100296.19
2023-05-28T15:48:05.371Z,100294.52
2023-05-28T15:50:35.140Z,100297.65
2023-05-28T15:53:03.159Z,100293.67
2023-05-28T15:55:31.427Z,100304.65
2023-05-28T15:57:59.657Z,100307.11
2023-05-28T16:00:28.158Z,100312.53
2023-05-28T16:02:56.335Z,100311.42
2023-05-28T16:05:24.922Z,100315.70
2023-05-28T16:07:53.144Z,100310.42
2023-05-28T16:10:22.440Z,100312.92
2023-05-28T16:12:54.760Z,100315.81
2023-05-28T16:15:22.749Z,100318.69
2023-05-28T16:17:51.044Z,100321.15
2023-05-28T16:20:19.721Z,100321.45
2023-05-28T16:22:48.175Z,100323.92
2023-05-28T16:25:18.835Z,100324.65
2023-05-28T16:27:47.223Z,100331.80
2023-05-28T16:30:17.086Z,100333.30
2023-05-28T16:32:46.458Z,100342.15
2023-05-28T16:35:15.469Z,100346.51
2023-05-28T16:37:43.841Z,100347.14
2023-05-28T16:40:13.235Z,100350.18
2023-05-28T16:42:41.946Z,100349.98
2023-05-28T16:45:11.190Z,100347.90
2023-05-28T16:47:42.530Z,100357.30
2023-05-28T16:50:14.243Z,100358.41
2023-05-28T16:52:42.433Z,100363.10
2023-05-28T16:55:10.743Z,100363.60
2023-05-28T16:57:38.814Z,100363.41
2023-05-28T17:00:08.469Z,100363.36
2023-05-28T17:02:37.193Z,100363.82
2023-05-28T17:05:06.048Z,100361.95
2023-05-28T17:07:34.124Z,100363.85
2023-05-28T17:10:02.220Z,100363.19
2023-05-28T17:12:30.174Z,100359.34
2023-05-28T17:14:58.467Z,100354.33
2023-05-28T17:17:26.533Z,100352.45
2023-05-28T17:19:54.754Z,100357.63
2023-05-28T17:22:23.504Z,100357.40
2023-05-28T17:24:51.532Z,100358.58
2023-05-28T17:27:19.572Z,100359.66
2023-05-28T17:29:47.553Z,100362.09
2023-05-28T17:32:15.899Z,100360.66
2023-05-28T17:34:47.060Z,100369.11
2023-05-28T17:37:15.136Z,100371.21
2023-05-28T17:39:43.173Z,100372.64
2023-05-28T17:42:11.137Z,100372.01
2023-05-28T17:44:39.148Z,100375.98
2023-05-28T17:47:07.241Z,100378.17
2023-05-28T17:49:37.517Z,100377.77
2023-05-28T17:52:05.665Z,100377.05
2023-05-28T17:54:33.869Z,100378.47
2023-05-28T17:57:02.754Z,100373.92
2023-05-28T17:59:31.317Z,100375.56
2023-05-28T18:02:00.980Z,100374.21
2023-05-28T18:04:29.195Z,100376.04
2023-05-28T18:06:57.727Z,100378.61
2023-05-28T18:09:26.176Z,100379.44
2023-05-28T18:11:54.276Z,100382.15
2023-05-28T18:14:22.444Z,100382.74
2023-05-28T18:16:50.899Z,100387.91
2023-05-28T18:19:23.319Z,100391.13
2023-05-28T18:21:52.187Z,100389.82
2023-05-28T18:24:20.556Z,100386.52
2023-05-28T18:26:48.746Z,100386.45
2023-05-28T18:29:16.945Z,100385.89
2023-05-28T18:31:47.716Z,100385.70
2023-05-28T18:34:16.146Z,100386.08
2023-05-28T18:36:46.002Z,100387.23
2023-05-28T18:39:14.089Z,100392.02
2023-05-28T18:41:42.997Z,100399.11
2023-05-28T18:44:11.122Z,100397.62
2023-05-28T18:46:39.163Z,100400.70
2023-05-28T18:49:07.357Z,100399.46
2023-05-28T18:51:36.048Z,100400.29
2023-05-28T18:54:04.170Z,100401.91
2023-05-28T18:56:32.215Z,100398.72
2023-05-28T18:59:03.144Z,100404.92
2023-05-28T19:01:33.301Z,100401.81
2023-05-28T19:04:01.690Z,100406.16
2023-05-28T19:06:29.820Z,100405.88
2023-05-28T19:08:57.849Z,100404.83
2023-05-28T19:11:27.057Z,100403.03
2023-05-28T19:13:55.233Z,100406.22
2023-05-28T19:16:23.210Z,100404.23
2023-05-28T19:18:51.348Z,100408.42
2023-05-28T19:21:19.574Z,100404.44
2023-05-28T19:23:47.650Z,100406.23
2023-05-28T19:26:16.027Z,100405.86
2023-05-28T19:28:44.144Z,100409.55
2023-05-28T19:31:12.329Z,100404.54
2023-05-28T19:33:40.490Z,100406.59
2023-05-28T19:36:10.407Z,100405.33
2023-05-28T19:38:38.472Z,100401.39
2023-05-28T19:41:06.498Z,100403.58
2023-05-28T19:43:34.715Z,100399.48
2023-05-28T19:46:02.831Z,100399.16
2023-05-28T19:48:34.149Z,100400.09
2023-05-28T19:51:02.214Z,100401.11
2023-05-28T19:53:30.280Z,100405.92
2023-05-28T19:55:58.265Z,100403.56
2023-05-28T19:58:26.420Z,100401.48
2023-05-28T20:00:54.650Z,100402.02
2023-05-28T20:03:23.158Z,100408.35
2023-05-28T20:05:51.569Z,100410.02
2023-05-28T20:08:19.674Z,100411.48
2023-05-28T20:10:47.697Z,100408.26
2023-05-28T20:13:15.781Z,100404.45
2023-05-28T20:15:43.853Z,100407.34
2023-05-28T20:18:11.931Z,100413.02
2023-05-28T20:20:40.753Z,100413.23
2023-05-28T20:23:08.744Z,100416.77
2023-05-28T20:25:36.799Z,100412.77
2023-05-28T20:28:05.332Z,100414.11
2023-05-28T20:30:33.372Z,100418.13
2023-05-28T20:33:01.480Z,100417.20
2023-05-28T20:35:30.261Z,100415.16
2023-05-28T20:38:04.080Z,100415.52
2023-05-28T20:40:33.628Z,100416.95
2023-05-28T20:43:04.789Z,100416.35
2023-05-28T20:45:37.464Z,100416.88
2023-05-28T20:48:06.035Z,100415.48
2023-05-28T20:50:37.036Z,100418.17
2023-05-28T20:53:05.715Z,100418.98
2023-05-28T20:55:33.794Z,100421.16
2023-05-28T20:58:04.065Z,100420.44
2023-05-28T21:00:32.309Z,100423.58
2023-05-28T21:03:00.485Z,100424.52
2023-05-28T21:05:28.639Z,100429.96
2023-05-28T21:07:58.974Z,100426.19
2023-05-28T21:10:27.018Z,100421.98
2023-05-28T21:12:55.076Z,100419.14
2023-05-28T21:15:23.474Z,100418.15
2023-05-28T21:17:51.488Z,100416.31
2023-05-28T21:20:19.463Z,100416.70
2023-05-28T21:22:47.681Z,100414.34
2023-05-28T21:25:15.961Z,100414.05
2023-05-28T21:27:47.523Z,100414.52
2023-05-28T21:30:15.583Z,100412.98
2023-05-28T21:32:47.081Z,100407.09
2023-05-28T21:35:15.480Z,100409.40
2023-05-28T21:37:47.814Z,100405.48
2023-05-28T21:40:16.327Z,100407.29
2023-05-28T21:42:44.350Z,100407.89
2023-05-28T21:45:12.470Z,100410.02
2023-05-28T21:47:40.767Z,100409.35
2023-05-28T21:50:10.046Z,100411.83
2023-05-28T21:52:38.278Z,100408.52
2023-05-28T21:55:07.252Z,100414.77
2023-05-28T21:57:35.375Z,100413.89
2023-05-28T22:00:04.670Z,100415.60
2023-05-28T22:02:44.333Z,100414.61
2023-05-28T22:05:13.961Z,100419.33
2023-05-28T22:07:42.649Z,100417.37
2023-05-28T22:10:11.078Z,100420.03
2023-05-28T22:12:40.570Z,100423.71
2023-05-28T22:15:11.948Z,100420.02
2023-05-28T22:17:43.305Z,100413.77
2023-05-28T22:20:12.623Z,100412.46
2023-05-28T22:22:41.354Z,100411.81
2023-05-28T22:25:09.914Z,100411.58
2023-05-28T22:27:38.784Z,100409.50
2023-05-28T22:30:07.734Z,100414.25
2023-05-28T22:32:35.957Z,100416.24
2023-05-28T22:35:05.985Z,100423.48
2023-05-28T22:37:34.063Z,100425.09
2023-05-28T22:40:02.274Z,100421.42
2023-05-28T22:42:30.961Z,100417.41
2023-05-28T22:44:59.182Z,100419.64
2023-05-28T22:47:27.800Z,100420.51
2023-05-28T22:49:57.368Z,100417.96
2023-05-28T22:52:26.063Z,100411.34
2023-05-28T22:54:54.134Z,100412.50
2023-05-28T22:57:22.381Z,100413.91
2023-05-28T22:59:50.370Z,100415.17
2023-05-28T23:02:18.544Z,100411.98
2023-05-28T23:04:47.752Z,100418.29
2023-05-28T23:07:15.861Z,100415.66
2023-05-28T23:09:44.194Z,100416.67
2023-05-28T23:12:13.522Z,100416.42
2023-05-28T23:14:42.433Z,100417.41
2023-05-28T23:17:11.189Z,100418.54
2023-05-28T23:19:42.204Z,100414.98
2023-05-28T23:22:10.243Z,100415.66
2023-05-28T23:24:38.317Z,100419.45
2023-05-28T23:27:07.836Z,100418.27
2023-05-28T23:29:38.505Z,100420.36
2023-05-28T23:32:07.049Z,100423.53
2023-05-28T23:34:35.671Z,100426.02
2023-05-28T23:37:04.086Z,100424.19
2023-05-28T23:39:32.233Z,100424.89
2023-05-28T23:42:00.279Z,100425.00
2023-05-28T23:44:28.419Z,100428.88
2023-05-28T23:46:57.156Z,100430.28
2023-05-28T23:49:25.203Z,100424.66
2023-05-28T23:51:53.224Z,100423.89
2023-05-28T23:54:21.294Z,100423.71
2023-05-28T23:56:49.455Z,100427.03
2023-05-28T23:59:17.646Z,100422.61
